Time;durP1;ratioP1;P1;durP2;ratioP2;P2;SDS_P1;SDS_P2;PMS_P1;PMS_P2;Temp;Humidity;BMP_temperature;BMP_pressure;BME280_temperature;BME280_humidity;BME280_pressure;Samples;Min_cycle;Max_cycle;Signal;HPM_P1;HPM_P2
2021/06/22 00:00:59;;;;;;;8.23;7.40;;;19.70;68.80;;;;;;5117424;28;20509;-72
2021/06/22 00:03:26;;;;;;;8.47;7.00;;;19.70;69.20;;;;;;5116903;28;20439;-72
2021/06/22 00:05:52;;;;;;;8.03;6.90;;;19.70;70.00;;;;;;5116872;28;20439;-73
2021/06/22 00:08:19;;;;;;;8.17;7.37;;;19.70;69.70;;;;;;5116881;28;20509;-72
2021/06/22 00:10:46;;;;;;;7.43;6.60;;;19.70;68.90;;;;;;5116481;28;20968;-72
2021/06/22 00:13:12;;;;;;;7.60;6.90;;;19.70;69.30;;;;;;5117002;28;20439;-72
2021/06/22 00:15:41;;;;;;;8.27;7.50;;;19.60;69.40;;;;;;5116671;28;20462;-72
2021/06/22 00:18:07;;;;;;;8.63;7.83;;;19.60;69.20;;;;;;5116289;28;20928;-72
2021/06/22 00:20:34;;;;;;;7.80;7.10;;;19.50;69.40;;;;;;5116166;28;20487;-72
2021/06/22 00:23:01;;;;;;;7.07;6.37;;;19.50;69.50;;;;;;5116451;28;20469;-72
2021/06/22 00:25:28;;;;;;;7.50;6.80;;;19.40;69.50;;;;;;5117243;28;20478;-72
2021/06/22 00:27:55;;;;;;;7.70;6.40;;;19.50;69.40;;;;;;5116078;28;20454;-72
2021/06/22 00:30:24;;;;;;;9.63;6.80;;;19.50;69.50;;;;;;5116376;28;20467;-72
2021/06/22 00:32:54;;;;;;;7.63;6.87;;;19.50;69.20;;;;;;5116356;28;20443;-72
2021/06/22 00:35:21;;;;;;;10.53;7.63;;;19.40;68.70;;;;;;5116300;28;20783;-72
2021/06/22 00:37:48;;;;;;;9.50;7.27;;;19.40;69.10;;;;;;5116252;28;20446;-72
2021/06/22 00:40:16;;;;;;;8.93;6.77;;;19.30;69.10;;;;;;5116128;28;20471;-72
2021/06/22 00:42:44;;;;;;;10.33;7.57;;;19.20;69.40;;;;;;5116217;28;20450;-72
2021/06/22 00:45:12;;;;;;;7.90;7.10;;;19.20;69.70;;;;;;5116214;28;20439;-72
2021/06/22 00:47:39;;;;;;;9.37;7.80;;;19.20;69.80;;;;;;5116185;28;20442;-72
2021/06/22 00:50:09;;;;;;;10.20;8.60;;;19.30;69.60;;;;;;5115040;28;20466;-72
2021/06/22 00:52:37;;;;;;;9.27;8.40;;;19.20;69.70;;;;;;5116001;28;20442;-72
2021/06/22 00:55:11;;;;;;;8.60;7.50;;;19.20;69.80;;;;;;5116023;28;20474;-72
2021/06/22 00:57:38;;;;;;;8.60;7.77;;;19.20;70.00;;;;;;5115976;28;20509;-72
2021/06/22 01:00:06;;;;;;;9.03;8.13;;;19.10;70.10;;;;;;5115656;28;20478;-72
2021/06/22 01:02:32;;;;;;;8.73;7.73;;;19.10;70.00;;;;;;5115879;28;20428;-72
2021/06/22 01:04:59;;;;;;;8.93;8.07;;;19.10;70.50;;;;;;5115730;28;20450;-71
2021/06/22 01:07:27;;;;;;;8.87;7.97;;;19.10;70.50;;;;;;5115650;28;20446;-72
2021/06/22 01:09:56;;;;;;;10.53;9.03;;;19.10;70.00;;;;;;5115595;28;20455;-73
2021/06/22 01:12:23;;;;;;;10.50;8.33;;;19.10;70.30;;;;;;5115280;28;20928;-73
2021/06/22 01:14:49;;;;;;;9.47;8.67;;;19.00;70.10;;;;;;5115483;28;20454;-73
2021/06/22 01:17:16;;;;;;;9.20;8.30;;;19.00;70.10;;;;;;5115498;28;20992;-73
2021/06/22 01:19:44;;;;;;;8.87;7.97;;;19.00;69.50;;;;;;5114898;28;20471;-73
2021/06/22 01:22:12;;;;;;;9.33;8.20;;;19.00;69.80;;;;;;5114452;28;20451;-73
2021/06/22 01:24:39;;;;;;;12.00;7.93;;;18.90;69.80;;;;;;5114458;28;20446;-73
2021/06/22 01:27:07;;;;;;;11.13;7.67;;;18.90;69.40;;;;;;5114066;28;20615;-73
2021/06/22 01:29:34;;;;;;;9.63;7.43;;;18.90;70.00;;;;;;5114004;28;20987;-71
2021/06/22 01:32:01;;;;;;;7.87;6.97;;;18.90;69.40;;;;;;5114309;28;20445;-73
2021/06/22 01:34:30;;;;;;;8.00;7.30;;;18.90;69.10;;;;;;5114274;28;20442;-73
2021/06/22 01:36:59;;;;;;;8.93;7.40;;;18.80;68.90;;;;;;5114168;28;20495;-73
2021/06/22 01:39:27;;;;;;;7.67;7.07;;;18.80;69.00;;;;;;5114124;28;20463;-73
2021/06/22 01:41:54;;;;;;;8.50;7.57;;;18.80;68.90;;;;;;5114135;28;20485;-73
2021/06/22 01:44:21;;;;;;;9.60;7.80;;;18.80;68.60;;;;;;5113942;28;20777;-73
2021/06/22 01:46:47;;;;;;;7.87;7.03;;;18.70;68.30;;;;;;5114016;28;20443;-73
2021/06/22 01:49:14;;;;;;;9.90;7.43;;;18.70;68.90;;;;;;5113944;28;20442;-73
2021/06/22 01:51:41;;;;;;;8.30;7.50;;;18.70;69.50;;;;;;5114057;28;20451;-73
2021/06/22 01:54:08;;;;;;;8.20;7.47;;;18.80;68.50;;;;;;5113875;28;20443;-72
2021/06/22 01:56:36;;;;;;;7.80;6.73;;;18.70;68.30;;;;;;5113942;28;20866;-73
2021/06/22 01:59:05;;;;;;;7.20;6.43;;;18.70;68.30;;;;;;5113481;28;20482;-73
2021/06/22 02:01:31;;;;;;;7.03;6.47;;;18.80;67.80;;;;;;5113048;28;20987;-73
2021/06/22 02:03:58;;;;;;;9.33;6.37;;;18.70;67.30;;;;;;5113526;28;20936;-73
2021/06/22 02:06:25;;;;;;;10.30;6.77;;;18.70;67.20;;;;;;5113970;28;20439;-73
2021/06/22 02:08:52;;;;;;;7.27;5.90;;;18.70;67.40;;;;;;5121815;28;20443;-73
2021/06/22 02:11:19;;;;;;;6.67;6.00;;;18.70;67.20;;;;;;5119360;28;20465;-73
2021/06/22 02:13:48;;;;;;;5.90;5.40;;;18.70;67.20;;;;;;5116475;28;20438;-73
2021/06/22 02:16:16;;;;;;;7.97;7.07;;;18.70;67.30;;;;;;5114451;28;20442;-73
2021/06/22 02:21:23;;;;;;;5.97;5.23;;;18.60;66.90;;;;;;5169038;27;20514;-71
2021/06/22 02:23:50;;;;;;;5.17;4.47;;;18.70;67.30;;;;;;5152261;27;20949;-71
2021/06/22 02:26:16;;;;;;;5.70;4.90;;;18.70;67.20;;;;;;5153356;27;20413;-71
2021/06/22 02:28:43;;;;;;;6.13;4.60;;;18.60;67.20;;;;;;5153117;27;20433;-73
2021/06/22 02:31:10;;;;;;;4.53;4.10;;;18.60;67.00;;;;;;5152928;27;20461;-73
2021/06/22 02:33:37;;;;;;;5.87;3.83;;;18.50;66.60;;;;;;5153119;27;20429;-72
2021/06/22 02:36:04;;;;;;;6.93;3.70;;;18.40;66.50;;;;;;5152324;27;20429;-73
2021/06/22 02:38:32;;;;;;;4.77;3.70;;;18.40;66.60;;;;;;5152200;27;20437;-72
2021/06/22 02:40:58;;;;;;;7.13;3.87;;;18.40;67.20;;;;;;5152273;27;20500;-73
2021/06/22 02:43:25;;;;;;;5.20;3.73;;;18.40;66.90;;;;;;5152481;27;20437;-72
2021/06/22 02:45:52;;;;;;;4.70;3.67;;;18.40;67.20;;;;;;5152775;27;20452;-72
2021/06/22 02:48:18;;;;;;;6.27;3.50;;;18.40;67.40;;;;;;5152124;27;20441;-72
2021/06/22 02:50:45;;;;;;;4.43;3.40;;;18.40;67.80;;;;;;5152074;27;21000;-72
2021/06/22 02:53:12;;;;;;;6.47;4.00;;;18.30;68.10;;;;;;5152175;27;20445;-72
2021/06/22 02:55:41;;;;;;;9.50;4.63;;;18.30;68.10;;;;;;5152224;27;20441;-72
2021/06/22 02:58:08;;;;;;;6.87;4.57;;;18.30;68.10;;;;;;5152242;27;20441;-72
2021/06/22 03:00:35;;;;;;;8.97;4.77;;;18.30;68.50;;;;;;5151871;27;20473;-73
2021/06/22 03:03:02;;;;;;;7.37;4.27;;;18.30;68.10;;;;;;5152011;27;20444;-72
2021/06/22 03:05:28;;;;;;;10.63;4.50;;;18.30;67.80;;;;;;5152018;27;20445;-72
2021/06/22 03:07:55;;;;;;;8.03;3.70;;;18.20;68.20;;;;;;5151907;27;20441;-72
2021/06/22 03:10:24;;;;;;;5.30;3.70;;;18.20;68.30;;;;;;5151815;27;20464;-72
2021/06/22 03:12:52;;;;;;;6.83;4.37;;;18.20;68.70;;;;;;5151847;27;20437;-72
2021/06/22 03:15:20;;;;;;;6.50;4.00;;;18.10;69.00;;;;;;5151462;27;20797;-72
2021/06/22 03:17:47;;;;;;;7.30;4.30;;;18.10;69.30;;;;;;5151583;27;20444;-72
2021/06/22 03:20:15;;;;;;;5.70;4.27;;;18.10;69.00;;;;;;5151196;27;20481;-73
2021/06/22 03:22:42;;;;;;;10.00;5.10;;;18.10;68.80;;;;;;5151646;27;20441;-72
2021/06/22 03:25:11;;;;;;;7.57;4.10;;;18.10;68.90;;;;;;5151879;27;20441;-72
2021/06/22 03:27:39;;;;;;;10.50;4.63;;;18.10;68.60;;;;;;5151628;27;20807;-72
2021/06/22 03:30:10;;;;;;;5.30;4.03;;;18.10;68.70;;;;;;5151379;27;20453;-72
2021/06/22 03:32:37;;;;;;;7.40;4.63;;;18.10;68.60;;;;;;5138565;27;20426;-72
2021/06/22 03:35:05;;;;;;;7.40;4.30;;;18.00;68.50;;;;;;5137677;27;20541;-72
2021/06/22 03:37:32;;;;;;;9.40;4.03;;;18.00;68.90;;;;;;5137726;27;20450;-72
2021/06/22 03:39:59;;;;;;;9.90;4.87;;;17.90;69.30;;;;;;5137424;27;20507;-72
2021/06/22 03:42:25;;;;;;;9.40;4.40;;;17.90;69.10;;;;;;5137417;27;20445;-72
2021/06/22 03:44:52;;;;;;;9.20;4.63;;;17.90;69.20;;;;;;5137367;27;20434;-72
2021/06/22 03:47:20;;;;;;;4.87;3.97;;;17.90;70.40;;;;;;5137213;27;20449;-72
2021/06/22 03:49:47;;;;;;;5.27;3.70;;;17.90;69.90;;;;;;5136890;27;20991;-72
2021/06/22 03:52:13;;;;;;;9.90;4.40;;;17.90;70.00;;;;;;5136873;27;20494;-72
2021/06/22 03:54:40;;;;;;;8.13;4.60;;;17.90;69.80;;;;;;5137281;27;20441;-72
2021/06/22 03:57:07;;;;;;;10.40;4.40;;;17.90;69.90;;;;;;5136950;27;20954;-72
2021/06/22 03:59:34;;;;;;;6.50;3.60;;;17.90;69.80;;;;;;5136895;27;20462;-72
2021/06/22 04:02:00;;;;;;;5.20;3.77;;;17.90;69.80;;;;;;5137125;27;20442;-73
2021/06/22 04:04:28;;;;;;;6.73;3.93;;;17.90;69.90;;;;;;5136985;27;20449;-73
2021/06/22 04:06:55;;;;;;;6.73;4.07;;;17.90;69.90;;;;;;5136947;27;20446;-72
2021/06/22 04:09:25;;;;;;;4.30;3.57;;;18.00;69.80;;;;;;5136968;27;20866;-73
2021/06/22 04:11:52;;;;;;;7.07;3.60;;;18.00;69.80;;;;;;5136990;27;20454;-73
2021/06/22 04:14:19;;;;;;;8.23;3.77;;;18.00;69.60;;;;;;5137069;27;20470;-73
2021/06/22 04:16:46;;;;;;;6.23;4.40;;;18.00;69.30;;;;;;5136402;27;20935;-72
2021/06/22 04:19:13;;;;;;;9.97;4.50;;;18.00;69.00;;;;;;5136555;27;20469;-73
2021/06/22 04:21:41;;;;;;;7.33;3.77;;;18.10;69.20;;;;;;5136535;27;20458;-73
2021/06/22 04:24:08;;;;;;;11.00;4.20;;;18.10;69.50;;;;;;5136564;27;20449;-73
2021/06/22 04:26:35;;;;;;;5.77;3.57;;;18.10;69.30;;;;;;5136515;27;20454;-73
2021/06/22 04:29:02;;;;;;;7.30;4.50;;;18.10;69.60;;;;;;5136397;27;20483;-73
2021/06/22 04:31:29;;;;;;;4.30;3.60;;;18.10;69.30;;;;;;5136017;27;20891;-73
2021/06/22 04:33:55;;;;;;;8.20;4.10;;;18.10;69.50;;;;;;5136249;27;20442;-73
2021/06/22 04:36:22;;;;;;;5.00;3.50;;;18.10;69.30;;;;;;5136257;27;20765;-73
2021/06/22 04:38:50;;;;;;;9.50;4.40;;;18.20;69.20;;;;;;5136144;27;20446;-73
2021/06/22 04:41:17;;;;;;;6.83;4.33;;;18.20;69.10;;;;;;5135972;27;20504;-73
2021/06/22 04:43:43;;;;;;;9.00;4.10;;;18.20;68.90;;;;;;5135029;27;20446;-73
2021/06/22 04:46:10;;;;;;;6.63;4.67;;;18.20;69.20;;;;;;5136099;27;20430;-73
2021/06/22 04:48:38;;;;;;;8.63;4.50;;;18.20;70.10;;;;;;5135976;27;20427;-73
2021/06/22 04:51:05;;;;;;;9.30;4.93;;;18.20;69.30;;;;;;5135922;27;20519;-73
2021/06/22 04:53:32;;;;;;;5.23;3.57;;;18.20;69.50;;;;;;5135882;27;20800;-73
2021/06/22 04:56:00;;;;;;;7.77;3.90;;;18.20;68.80;;;;;;5135782;27;20449;-72
2021/06/22 04:58:27;;;;;;;7.07;4.90;;;18.20;69.10;;;;;;5135827;27;20430;-72
2021/06/22 05:00:54;;;;;;;10.77;4.27;;;18.20;69.10;;;;;;5135626;27;20489;-73
2021/06/22 05:03:20;;;;;;;6.77;4.80;;;18.20;69.30;;;;;;5135741;27;20475;-72
2021/06/22 05:05:47;;;;;;;9.33;4.77;;;18.30;69.00;;;;;;5135693;27;20438;-72
2021/06/22 05:08:14;;;;;;;10.50;5.30;;;18.20;69.00;;;;;;5135567;27;20450;-72
2021/06/22 05:10:41;;;;;;;8.33;5.20;;;18.20;69.40;;;;;;5135703;27;20462;-72
2021/06/22 05:13:09;;;;;;;9.70;5.40;;;18.30;69.70;;;;;;5135484;27;20442;-72
2021/06/22 05:15:35;;;;;;;6.63;4.47;;;18.30;69.60;;;;;;5135474;27;20449;-72
2021/06/22 05:18:02;;;;;;;11.37;6.43;;;18.30;69.40;;;;;;5135394;27;20445;-72
2021/06/22 05:20:29;;;;;;;12.40;6.40;;;18.30;69.40;;;;;;5134748;27;20857;-73
2021/06/22 05:22:55;;;;;;;10.27;6.13;;;18.30;69.70;;;;;;5135378;27;20441;-73
2021/06/22 05:25:22;;;;;;;10.50;5.90;;;18.30;69.60;;;;;;5135302;27;20445;-72
2021/06/22 05:27:49;;;;;;;10.63;5.57;;;18.30;69.60;;;;;;5135332;27;20426;-72
2021/06/22 05:30:18;;;;;;;9.43;5.70;;;18.40;69.70;;;;;;5135192;27;20461;-72
2021/06/22 05:32:44;;;;;;;7.60;5.10;;;18.40;69.60;;;;;;5135135;27;20465;-72
2021/06/22 05:35:12;;;;;;;15.10;6.20;;;18.40;69.20;;;;;;5135199;27;20434;-72
2021/06/22 05:37:39;;;;;;;9.97;5.70;;;18.40;69.60;;;;;;5135120;27;20520;-72
2021/06/22 05:40:07;;;;;;;9.27;6.93;;;18.50;69.40;;;;;;5135015;27;20806;-72
2021/06/22 05:42:34;;;;;;;9.53;5.70;;;18.50;69.30;;;;;;5134961;27;20786;-73
2021/06/22 05:45:00;;;;;;;9.97;5.33;;;18.60;68.90;;;;;;5135006;27;20442;-73
2021/06/22 05:47:28;;;;;;;12.23;5.83;;;18.60;69.10;;;;;;5134925;27;20446;-72
2021/06/22 05:49:55;;;;;;;11.23;6.87;;;18.50;69.20;;;;;;5134572;27;20460;-72
2021/06/22 05:52:22;;;;;;;6.77;5.80;;;18.60;69.50;;;;;;5134906;27;20432;-73
2021/06/22 05:54:49;;;;;;;8.83;6.27;;;18.60;68.90;;;;;;5135186;27;20464;-73
2021/06/22 05:57:15;;;;;;;10.80;5.67;;;18.60;69.00;;;;;;5134728;27;20445;-73
2021/06/22 05:59:42;;;;;;;9.00;5.70;;;18.60;68.80;;;;;;5134473;27;20450;-72
2021/06/22 06:02:09;;;;;;;8.40;6.27;;;18.70;68.90;;;;;;5134291;27;21013;-73
2021/06/22 06:04:37;;;;;;;10.13;6.07;;;18.70;68.90;;;;;;5134637;27;20434;-72
2021/06/22 06:07:04;;;;;;;8.40;6.77;;;18.70;68.80;;;;;;5134284;27;20442;-72
2021/06/22 06:09:31;;;;;;;8.43;5.40;;;18.80;68.90;;;;;;5134604;27;20508;-72
2021/06/22 06:11:57;;;;;;;11.77;5.70;;;18.90;68.80;;;;;;5134292;27;20800;-73
2021/06/22 06:14:24;;;;;;;9.07;6.00;;;19.00;68.40;;;;;;5134263;27;20788;-73
2021/06/22 06:16:51;;;;;;;10.93;6.20;;;19.00;68.10;;;;;;5134671;28;20462;-73
2021/06/22 06:19:18;;;;;;;7.67;6.03;;;19.00;68.40;;;;;;5134617;28;20488;-73
2021/06/22 06:21:46;;;;;;;10.10;5.33;;;19.10;68.40;;;;;;5134718;28;20462;-73
2021/06/22 06:24:13;;;;;;;9.43;5.83;;;19.20;67.70;;;;;;5134277;28;20458;-73
2021/06/22 06:26:48;;;;;;;6.60;5.10;;;19.30;67.80;;;;;;5134193;28;20422;-73
2021/06/22 06:29:19;;;;;;;9.37;5.43;;;19.50;67.30;;;;;;5134401;27;20430;-73
2021/06/22 06:31:46;;;;;;;9.03;5.90;;;19.50;67.60;;;;;;5134496;27;20457;-73
2021/06/22 06:34:13;;;;;;;10.07;5.67;;;19.60;66.70;;;;;;5134071;28;20796;-72
2021/06/22 06:36:40;;;;;;;6.60;4.80;;;19.60;66.50;;;;;;5134336;28;20433;-71
2021/06/22 06:39:08;;;;;;;7.90;4.93;;;19.60;66.20;;;;;;5134215;28;20431;-71
2021/06/22 06:41:35;;;;;;;5.97;5.40;;;19.60;66.40;;;;;;5134012;28;20503;-73
2021/06/22 06:44:01;;;;;;;10.33;5.50;;;19.60;66.70;;;;;;5134012;28;20793;-71
2021/06/22 06:46:28;;;;;;;7.43;5.47;;;19.60;66.40;;;;;;5134396;28;20430;-72
2021/06/22 06:48:55;;;;;;;6.57;5.33;;;19.70;66.50;;;;;;5133986;28;20788;-72
2021/06/22 06:51:21;;;;;;;8.93;5.50;;;19.60;66.30;;;;;;5134078;28;20464;-72
2021/06/22 06:53:48;;;;;;;7.40;4.57;;;19.60;65.50;;;;;;5133831;28;20961;-72
2021/06/22 06:56:16;;;;;;;8.10;4.47;;;19.60;65.30;;;;;;5134086;28;20452;-72
2021/06/22 06:58:43;;;;;;;11.30;6.00;;;19.60;65.00;;;;;;5134132;28;20468;-71
2021/06/22 07:01:10;;;;;;;10.07;5.47;;;19.50;65.20;;;;;;5133981;28;20624;-72
2021/06/22 07:03:37;;;;;;;5.87;4.40;;;19.50;65.20;;;;;;5134049;28;20433;-73
2021/06/22 07:06:04;;;;;;;7.33;5.00;;;19.40;65.00;;;;;;5134437;27;20433;-72
2021/06/22 07:08:31;;;;;;;9.67;5.40;;;19.40;65.80;;;;;;5137941;27;20437;-73
2021/06/22 07:10:57;;;;;;;6.90;4.50;;;19.30;66.10;;;;;;5137901;27;20461;-73
2021/06/22 07:13:25;;;;;;;6.57;4.80;;;19.30;65.90;;;;;;5137841;27;20446;-73
2021/06/22 07:15:52;;;;;;;11.90;5.87;;;19.20;66.60;;;;;;5137891;27;20448;-73
2021/06/22 07:18:19;;;;;;;9.17;5.03;;;19.20;66.80;;;;;;5137862;27;20423;-73
2021/06/22 07:20:46;;;;;;;9.33;5.00;;;19.20;66.70;;;;;;5137217;27;21009;-73
2021/06/22 07:23:12;;;;;;;8.07;4.97;;;19.30;67.00;;;;;;5137729;27;20927;-72
2021/06/22 07:25:39;;;;;;;11.27;5.53;;;19.30;66.90;;;;;;5137853;27;20453;-72
2021/06/22 07:28:06;;;;;;;7.13;4.43;;;19.30;67.80;;;;;;5137784;27;20464;-72
2021/06/22 07:30:34;;;;;;;10.73;4.70;;;19.50;68.20;;;;;;5137258;27;21027;-71
2021/06/22 07:33:01;;;;;;;6.60;5.10;;;19.50;68.30;;;;;;5137574;27;20449;-72
2021/06/22 07:35:29;;;;;;;8.30;4.90;;;19.60;68.80;;;;;;5137430;27;20445;-71
2021/06/22 07:37:56;;;;;;;6.90;4.40;;;19.60;68.70;;;;;;5138200;27;20430;-71
2021/06/22 07:40:23;;;;;;;7.90;4.33;;;19.70;69.00;;;;;;5137265;27;20465;-70
2021/06/22 07:42:50;;;;;;;7.30;4.63;;;19.90;68.90;;;;;;5137181;27;20465;-71
2021/06/22 07:45:17;;;;;;;6.60;3.87;;;20.00;68.60;;;;;;5137217;27;20498;-71
2021/06/22 07:47:45;;;;;;;5.23;3.67;;;20.00;68.00;;;;;;5136862;27;20915;-70
2021/06/22 07:50:14;;;;;;;6.10;4.30;;;20.10;68.10;;;;;;5137036;27;20458;-70
2021/06/22 07:52:42;;;;;;;8.47;4.30;;;20.10;68.10;;;;;;5137127;27;20425;-70
2021/06/22 07:55:13;;;;;;;4.50;3.80;;;20.20;68.80;;;;;;5137090;27;20446;-71
2021/06/22 07:57:44;;;;;;;10.60;4.57;;;20.30;69.80;;;;;;5137095;27;20466;-70
2021/06/22 08:00:24;;;;;;;7.77;4.40;;;20.40;69.70;;;;;;5137040;27;20458;-71
2021/06/22 08:02:52;;;;;;;6.30;4.00;;;20.60;69.30;;;;;;5136613;27;20516;-71
2021/06/22 08:05:18;;;;;;;8.47;4.10;;;20.90;68.80;;;;;;5136982;27;20453;-71
2021/06/22 08:07:45;;;;;;;6.30;3.40;;;21.20;68.40;;;;;;5136944;27;20433;-72
2021/06/22 08:10:12;;;;;;;5.67;4.07;;;21.50;67.80;;;;;;5136360;27;20974;-73
2021/06/22 08:12:39;;;;;;;4.60;4.10;;;21.90;65.90;;;;;;5136857;27;20490;-72
2021/06/22 08:15:07;;;;;;;5.40;3.70;;;22.20;65.00;;;;;;5137314;27;20445;-73
2021/06/22 08:17:34;;;;;;;6.60;4.00;;;22.50;62.70;;;;;;5136136;27;20446;-73
2021/06/22 08:20:03;;;;;;;6.03;3.30;;;22.70;60.30;;;;;;5136007;27;21009;-73
2021/06/22 08:22:30;;;;;;;6.83;3.90;;;22.90;59.90;;;;;;5136570;27;20481;-72
2021/06/22 08:24:56;;;;;;;8.53;3.87;;;23.00;58.70;;;;;;5136273;27;20481;-72
2021/06/22 08:27:23;;;;;;;7.67;4.17;;;23.10;58.60;;;;;;5136516;27;20427;-72
2021/06/22 08:29:50;;;;;;;5.20;3.50;;;23.10;57.70;;;;;;5136359;27;20465;-73
2021/06/22 08:32:17;;;;;;;5.10;3.60;;;23.10;57.40;;;;;;5136300;27;20442;-71
2021/06/22 08:34:43;;;;;;;4.33;3.30;;;23.10;57.50;;;;;;5136283;27;20449;-72
2021/06/22 08:37:11;;;;;;;3.77;3.23;;;23.10;57.60;;;;;;5136239;27;20426;-72
2021/06/22 08:39:38;;;;;;;7.80;4.20;;;23.10;57.60;;;;;;5136131;27;20462;-72
2021/06/22 08:42:07;;;;;;;8.00;4.13;;;23.20;57.40;;;;;;5135704;27;20982;-72
2021/06/22 08:44:34;;;;;;;5.77;3.60;;;23.30;57.40;;;;;;5136175;27;20430;-71
2021/06/22 08:47:01;;;;;;;6.13;3.90;;;23.40;57.30;;;;;;5136124;27;20465;-71
2021/06/22 08:49:29;;;;;;;5.13;3.50;;;23.50;56.10;;;;;;5136010;27;20461;-73
2021/06/22 08:51:56;;;;;;;5.07;3.37;;;23.60;55.40;;;;;;5135969;27;20419;-72
2021/06/22 08:54:24;;;;;;;5.30;3.57;;;23.80;55.30;;;;;;5135938;27;20431;-72
2021/06/22 08:56:52;;;;;;;7.30;4.43;;;23.90;54.70;;;;;;5135873;27;20431;-73
2021/06/22 08:59:19;;;;;;;7.40;4.00;;;24.10;54.30;;;;;;5135457;27;20955;-71
2021/06/22 09:01:46;;;;;;;6.50;4.17;;;24.20;54.10;;;;;;5135672;27;20466;-74
2021/06/22 09:04:13;;;;;;;6.27;3.63;;;24.30;53.80;;;;;;5135735;27;20454;-73
2021/06/22 09:06:40;;;;;;;3.90;3.20;;;24.50;53.00;;;;;;5135359;27;20494;-72
2021/06/22 09:09:08;;;;;;;4.33;3.90;;;24.60;52.80;;;;;;5135583;27;20426;-72
2021/06/22 09:11:36;;;;;;;4.57;4.03;;;24.80;52.50;;;;;;5135616;27;20418;-72
2021/06/22 09:14:05;;;;;;;5.63;3.30;;;24.80;51.70;;;;;;5135538;27;20422;-72
2021/06/22 09:16:33;;;;;;;3.73;3.30;;;24.90;51.50;;;;;;5135492;27;20445;-72
2021/06/22 09:19:02;;;;;;;6.20;4.00;;;25.10;51.60;;;;;;5135273;27;20430;-72
2021/06/22 09:21:29;;;;;;;4.53;3.40;;;25.40;51.60;;;;;;5135409;27;20462;-72
2021/06/22 09:23:57;;;;;;;8.57;3.90;;;25.60;50.70;;;;;;5135338;27;20430;-72
2021/06/22 09:26:25;;;;;;;7.30;3.73;;;25.70;50.10;;;;;;5134984;27;20441;-72
2021/06/22 09:29:05;;;;;;;5.87;3.90;;;25.90;50.30;;;;;;5134715;27;20426;-72
2021/06/22 09:31:32;;;;;;;4.20;2.73;;;25.90;49.00;;;;;;5134982;27;20899;-72
2021/06/22 09:33:59;;;;;;;10.60;3.83;;;25.80;48.50;;;;;;5135720;27;20429;-73
2021/06/22 09:36:27;;;;;;;3.57;3.27;;;25.90;49.10;;;;;;5134800;27;20935;-73
2021/06/22 09:38:56;;;;;;;5.20;3.60;;;25.90;49.10;;;;;;5135130;27;20438;-73
2021/06/22 09:41:26;;;;;;;4.23;3.63;;;25.90;48.70;;;;;;5134712;27;20831;-73
2021/06/22 09:44:00;;;;;;;5.80;3.50;;;25.90;48.50;;;;;;5135065;27;20442;-73
2021/06/22 09:46:38;;;;;;;6.87;4.20;;;25.80;48.40;;;;;;5135041;27;20430;-73
2021/06/22 09:49:07;;;;;;;5.50;3.90;;;25.70;48.90;;;;;;5134530;27;20843;-72
2021/06/22 09:51:37;;;;;;;4.57;4.13;;;25.50;48.90;;;;;;5134821;27;20442;-73
2021/06/22 09:54:26;;;;;;;5.27;4.53;;;25.30;48.80;;;;;;5134701;27;20814;-73
2021/06/22 09:57:02;;;;;;;6.80;4.37;;;25.20;49.10;;;;;;5134887;27;20492;-74
2021/06/22 09:59:31;;;;;;;5.70;4.50;;;25.00;48.90;;;;;;5134813;27;20461;-72
2021/06/22 10:02:09;;;;;;;5.70;4.50;;;24.80;49.70;;;;;;5134576;27;20986;-74
2021/06/22 10:04:36;;;;;;;6.20;4.57;;;24.60;49.90;;;;;;5134812;27;20518;-72
2021/06/22 10:07:03;;;;;;;5.87;5.17;;;24.40;50.70;;;;;;5134737;27;20438;-72
2021/06/22 10:09:31;;;;;;;4.93;4.43;;;24.20;50.80;;;;;;5134603;27;20810;-74
2021/06/22 10:12:04;;;;;;;4.53;4.00;;;24.10;51.70;;;;;;5134731;27;20426;-71
2021/06/22 10:14:34;;;;;;;4.73;4.03;;;24.00;52.50;;;;;;5134315;27;20430;-72
2021/06/22 10:17:02;;;;;;;5.23;3.70;;;24.00;53.20;;;;;;5134578;27;20438;-71
2021/06/22 10:19:29;;;;;;;3.73;3.30;;;24.10;52.60;;;;;;5134332;28;20481;-73
2021/06/22 10:21:57;;;;;;;5.20;4.23;;;24.20;52.10;;;;;;5134241;27;20986;-73
2021/06/22 10:24:25;;;;;;;4.80;4.27;;;24.30;52.30;;;;;;5134459;28;20449;-72
2021/06/22 10:26:53;;;;;;;6.90;5.87;;;24.30;51.90;;;;;;5134575;28;20850;-71
2021/06/22 10:29:23;;;;;;;6.20;4.90;;;24.40;51.70;;;;;;5134467;28;20426;-72
2021/06/22 10:31:53;;;;;;;5.23;4.77;;;24.50;51.50;;;;;;5134463;28;20865;-72
2021/06/22 10:34:19;;;;;;;6.50;5.90;;;24.50;51.50;;;;;;5134467;28;20457;-72
2021/06/22 10:36:51;;;;;;;11.17;5.50;;;24.50;51.50;;;;;;5134367;28;20442;-71
2021/06/22 10:39:23;;;;;;;6.87;4.70;;;24.50;51.20;;;;;;5134313;28;20792;-72
2021/06/22 10:41:50;;;;;;;6.97;5.40;;;24.50;51.20;;;;;;5135945;27;20422;-72
2021/06/22 10:44:42;;;;;;;7.83;4.90;;;24.40;51.10;;;;;;5138531;27;20441;-71
2021/06/22 10:47:30;;;;;;;5.60;4.60;;;24.30;51.50;;;;;;5138515;27;20513;-71
2021/06/22 10:50:14;;;;;;;5.90;4.57;;;24.20;52.00;;;;;;5138278;27;20468;-71
2021/06/22 10:52:52;;;;;;;5.33;4.20;;;24.00;52.00;;;;;;5136735;27;20514;-71
2021/06/22 10:55:20;;;;;;;5.40;4.50;;;23.90;52.20;;;;;;5138353;27;20422;-72
2021/06/22 10:58:11;;;;;;;9.00;3.90;;;23.90;52.40;;;;;;5137980;27;20429;-71
2021/06/22 11:01:06;;;;;;;6.07;3.77;;;23.90;52.50;;;;;;5138254;27;20572;-71
2021/06/22 11:03:35;;;;;;;5.27;3.67;;;23.80;52.00;;;;;;5138015;27;20481;-72
2021/06/22 11:06:21;;;;;;;3.93;3.53;;;23.70;52.30;;;;;;5137954;27;20434;-72
2021/06/22 11:08:48;;;;;;;4.47;4.07;;;23.70;52.40;;;;;;5138049;27;20422;-72
2021/06/22 11:11:24;;;;;;;4.93;4.03;;;23.60;52.60;;;;;;5137630;27;20857;-72
2021/06/22 11:13:55;;;;;;;7.37;4.30;;;23.50;53.10;;;;;;5137912;27;20434;-72
2021/06/22 11:16:27;;;;;;;6.83;4.00;;;23.40;53.90;;;;;;5137944;27;20844;-72
2021/06/22 11:19:09;;;;;;;5.97;5.00;;;23.30;54.40;;;;;;5137747;27;20449;-72
2021/06/22 11:21:39;;;;;;;6.50;4.40;;;23.30;54.30;;;;;;5137785;27;20422;-72
2021/06/22 11:24:08;;;;;;;7.43;4.20;;;23.30;54.10;;;;;;5137647;27;20489;-72
2021/06/22 11:27:04;;;;;;;6.37;3.70;;;23.20;54.00;;;;;;5138082;27;20442;-72
2021/06/22 11:29:54;;;;;;;5.40;4.30;;;23.20;54.20;;;;;;5137442;27;20461;-72
2021/06/22 11:32:37;;;;;;;6.90;3.50;;;23.10;53.80;;;;;;5137561;27;20911;-72
2021/06/22 11:35:13;;;;;;;8.77;4.00;;;22.90;54.00;;;;;;5137490;27;20450;-72
2021/06/22 11:37:40;;;;;;;6.77;4.20;;;22.90;54.80;;;;;;5137474;27;20441;-72
2021/06/22 11:40:10;;;;;;;7.57;4.47;;;22.90;55.30;;;;;;5137286;27;20465;-72
2021/06/22 11:42:39;;;;;;;7.50;4.50;;;22.90;55.30;;;;;;5137011;27;20959;-72
2021/06/22 11:45:21;;;;;;;4.70;3.43;;;23.10;55.50;;;;;;5137306;27;20430;-72
2021/06/22 11:48:01;;;;;;;6.87;4.70;;;23.10;55.30;;;;;;5136977;27;20428;-72
2021/06/22 11:50:48;;;;;;;8.57;5.10;;;23.20;55.00;;;;;;5137203;27;20461;-72
2021/06/22 11:53:16;;;;;;;8.70;6.17;;;23.20;54.90;;;;;;5136701;27;20426;-72
2021/06/22 11:55:43;;;;;;;10.63;5.90;;;23.20;54.90;;;;;;5137069;27;20444;-72
2021/06/22 11:58:16;;;;;;;7.60;6.23;;;23.10;55.00;;;;;;5136792;27;20998;-72
2021/06/22 12:00:43;;;;;;;8.43;5.90;;;23.00;55.10;;;;;;5137164;27;20468;-72
2021/06/22 12:03:09;;;;;;;6.80;5.53;;;23.10;55.20;;;;;;5136910;27;20484;-73
2021/06/22 12:05:39;;;;;;;6.17;5.20;;;23.10;55.50;;;;;;5137007;27;20821;-72
2021/06/22 12:08:07;;;;;;;6.10;5.30;;;23.20;55.50;;;;;;5136865;27;20449;-72
2021/06/22 12:10:47;;;;;;;6.40;5.13;;;23.30;55.10;;;;;;5136473;27;20523;-72
2021/06/22 12:13:27;;;;;;;10.03;6.60;;;23.50;54.80;;;;;;5136876;27;20422;-73
2021/06/22 12:15:54;;;;;;;7.83;5.90;;;23.70;54.70;;;;;;5136502;27;20950;-72
2021/06/22 12:18:26;;;;;;;6.17;5.10;;;23.80;54.50;;;;;;5136585;27;20430;-71
2021/06/22 12:20:54;;;;;;;9.10;5.80;;;23.90;53.80;;;;;;5136193;27;20477;-72
2021/06/22 12:23:21;;;;;;;5.50;5.00;;;23.90;53.40;;;;;;5136516;27;20481;-73
2021/06/22 12:25:50;;;;;;;6.67;6.00;;;23.90;53.30;;;;;;5136569;27;20427;-73
2021/06/22 12:28:17;;;;;;;6.67;5.47;;;23.80;53.60;;;;;;5136987;27;20445;-71
2021/06/22 12:30:46;;;;;;;5.80;5.30;;;23.80;53.50;;;;;;5136054;27;20997;-73
2021/06/22 12:33:15;;;;;;;5.63;5.00;;;23.60;53.30;;;;;;5136078;27;20795;-72
2021/06/22 12:35:43;;;;;;;5.30;4.80;;;23.60;54.00;;;;;;5136035;27;20926;-71
2021/06/22 12:38:12;;;;;;;8.30;5.30;;;23.50;54.40;;;;;;5136333;27;20430;-72
2021/06/22 12:40:41;;;;;;;8.73;4.80;;;23.40;54.90;;;;;;5135884;27;20469;-72
2021/06/22 12:43:08;;;;;;;6.67;5.40;;;23.30;55.00;;;;;;5136153;27;20458;-71
2021/06/22 12:45:35;;;;;;;5.77;4.50;;;23.20;54.90;;;;;;5136129;27;20437;-71
2021/06/22 12:48:02;;;;;;;4.77;4.23;;;23.00;55.00;;;;;;5136090;27;20459;-71
2021/06/22 12:50:30;;;;;;;9.63;5.30;;;22.90;55.40;;;;;;5136009;27;20462;-70
2021/06/22 12:52:58;;;;;;;5.97;4.47;;;22.80;55.50;;;;;;5136289;27;20441;-72
2021/06/22 12:55:43;;;;;;;7.20;4.60;;;22.70;56.30;;;;;;5136061;27;20457;-71